首页
METAR-TAF:

METAR-TAF

机场 :

巴統國際機場

巴统, 格鲁吉亚

纬度: 41-36-37N, 经度: 041-35-58E, 海拔: 32米

当前天气观测

该预报发布于5分钟前的06:00 UTC
风速23节,风向东南
温度 11°C
湿度 50%
气压 1016 hPa
能见度10公里或以上
1500米以下无云,无积雨云

METAR: UGSB 010600Z 13023KT CAVOK 11/01 Q1016 NOSIG

时间: 10:05 (06:05 UTC)

预报

该预报发布于1小时和5分钟前的05:00 UTC
预报有效从01日的 06点(UTC)到 02日的 06点(UTC)
风速20节,风向东南
能见度10公里或以上
1500米以下无云,无积雨云
成为
从 01日的 09点(UTC)到 01日的 11点(UTC)
风速7节,风向北转东北
成为
从 01日的 15点(UTC)到 01日的 18点(UTC)
风速15节,风向东南
散云层高于3500英尺
短暂存在
从 02日的 00点(UTC)到 02日的 06点(UTC)
风速25节,风向东南

TAF: UGSB 010500Z 0106/0206 13020KT CAVOK TX18/0110Z TN09/0200Z BECMG 0109/0111 02007KT BECMG 0115/0118 13015KT SCT035 TEMPO 0200/0206 13025KT

超过4000个机场的气象观测和天气预报(METAR&TAF报告)。

可查询的气象台以黄色和红色小点在地图上表示。

将鼠标移到小点上方,可查看气象台名称。

然后点击查看天气观测和预报。

如需切换地图:点击带黑十字的绿色按钮放大地图;点击带横线的绿色按钮缩小地图;或者点击绿色箭头查看邻近地区的地图。


METAR-TAF: